createdAt,value
2018-05-03T00:00:16.296Z,956.44
2018-05-03T00:01:16.234Z,956.40
2018-05-03T00:02:16.171Z,956.43
2018-05-03T00:03:16.109Z,956.42
2018-05-03T00:04:16.047Z,956.42
2018-05-03T00:05:15.985Z,956.39
2018-05-03T00:06:15.923Z,956.41
2018-05-03T00:07:15.860Z,956.37
2018-05-03T00:08:15.799Z,956.34
2018-05-03T00:09:15.740Z,956.36
2018-05-03T00:10:15.677Z,956.35
2018-05-03T00:11:15.612Z,956.35
2018-05-03T00:12:15.550Z,956.31
2018-05-03T00:13:15.486Z,956.31
2018-05-03T00:14:15.426Z,956.28
2018-05-03T00:15:15.363Z,956.33
2018-05-03T00:16:15.301Z,956.31
2018-05-03T00:17:15.240Z,956.30
2018-05-03T00:18:15.194Z,956.29
2018-05-03T00:19:15.115Z,956.33
2018-05-03T00:20:15.052Z,956.33
2018-05-03T00:21:14.991Z,956.33
2018-05-03T00:22:14.929Z,956.39
2018-05-03T00:23:14.865Z,956.41
2018-05-03T00:24:14.803Z,956.40
2018-05-03T00:25:14.740Z,956.36
2018-05-03T00:26:14.679Z,956.38
2018-05-03T00:27:14.620Z,956.35
2018-05-03T00:28:14.555Z,956.37
2018-05-03T00:29:14.492Z,956.35
2018-05-03T00:30:14.430Z,956.38
2018-05-03T00:31:14.368Z,956.35
2018-05-03T00:32:14.305Z,956.35
2018-05-03T00:33:14.242Z,956.39
2018-05-03T00:34:14.181Z,956.38
2018-05-03T00:35:14.138Z,956.40
2018-05-03T00:36:14.057Z,956.46
2018-05-03T00:37:13.996Z,956.46
2018-05-03T00:38:13.933Z,956.48
2018-05-03T00:39:13.870Z,956.51
2018-05-03T00:40:13.808Z,956.53
2018-05-03T00:41:13.746Z,956.49
2018-05-03T00:42:13.691Z,956.52
2018-05-03T00:43:13.620Z,956.55
2018-05-03T00:44:13.561Z,956.48
2018-05-03T00:45:13.495Z,956.49
2018-05-03T00:46:13.433Z,956.48
2018-05-03T00:47:13.374Z,956.48
2018-05-03T00:48:13.311Z,956.46
2018-05-03T00:49:13.246Z,956.47
2018-05-03T00:50:13.190Z,956.44
2018-05-03T00:51:13.123Z,956.48
2018-05-03T00:52:13.061Z,956.49
2018-05-03T00:53:13.000Z,956.46
2018-05-03T00:54:12.938Z,956.47
2018-05-03T00:55:12.874Z,956.44
2018-05-03T00:56:12.812Z,956.48
2018-05-03T00:57:12.749Z,956.44
2018-05-03T00:58:12.690Z,956.42
2018-05-03T00:59:12.625Z,956.43
2018-05-03T01:00:12.565Z,956.38
2018-05-03T01:01:12.501Z,956.36
2018-05-03T01:02:12.438Z,956.36
2018-05-03T01:03:12.377Z,956.35
2018-05-03T01:04:12.312Z,956.33
2018-05-03T01:05:12.253Z,956.32
2018-05-03T01:06:12.188Z,956.32
2018-05-03T01:07:12.132Z,956.35
2018-05-03T01:08:12.065Z,956.34
2018-05-03T01:09:12.003Z,956.32
2018-05-03T01:10:11.941Z,956.40
2018-05-03T01:11:11.880Z,956.38
2018-05-03T01:12:11.818Z,956.37
2018-05-03T01:13:11.755Z,956.35
2018-05-03T01:14:11.693Z,956.34
2018-05-03T01:15:11.630Z,956.33
2018-05-03T01:16:11.569Z,956.32
2018-05-03T01:17:11.502Z,956.29
2018-05-03T01:18:11.442Z,956.31
2018-05-03T01:19:11.380Z,956.29
2018-05-03T01:20:11.317Z,956.30
2018-05-03T01:21:11.256Z,956.32
2018-05-03T01:22:11.198Z,956.32
2018-05-03T01:23:11.131Z,956.36
2018-05-03T01:24:11.068Z,956.37
2018-05-03T01:25:11.009Z,956.36
2018-05-03T01:26:10.944Z,956.31
2018-05-03T01:27:10.883Z,956.35
2018-05-03T01:28:10.818Z,956.31
2018-05-03T01:29:10.762Z,956.33
2018-05-03T01:30:10.694Z,956.32
2018-05-03T01:31:10.633Z,956.30
2018-05-03T01:32:10.575Z,956.36
2018-05-03T01:33:10.507Z,956.33
2018-05-03T01:34:10.444Z,956.34
2018-05-03T01:35:10.383Z,956.25
2018-05-03T01:36:10.319Z,956.24
2018-05-03T01:37:10.257Z,956.17
2018-05-03T01:38:10.194Z,956.14
2018-05-03T01:39:10.150Z,956.06
2018-05-03T01:40:10.070Z,956.09
2018-05-03T01:41:10.008Z,956.05
2018-05-03T01:42:09.945Z,956.02
2018-05-03T01:43:09.884Z,956.07
2018-05-03T01:44:09.819Z,956.05
2018-05-03T01:45:09.758Z,956.05
2018-05-03T01:46:09.700Z,956.06
2018-05-03T01:47:09.635Z,956.09
2018-05-03T01:48:09.570Z,956.09
2018-05-03T01:49:09.508Z,956.14
2018-05-03T01:50:09.446Z,956.14
2018-05-03T01:51:09.384Z,956.12
2018-05-03T01:52:09.323Z,956.16
2018-05-03T01:53:09.258Z,956.12
2018-05-03T01:54:09.198Z,956.17
2018-05-03T01:55:09.136Z,956.17
2018-05-03T01:56:09.071Z,956.19
2018-05-03T01:57:09.014Z,956.16
2018-05-03T01:58:08.947Z,956.23
2018-05-03T01:59:08.883Z,956.19
2018-05-03T02:00:08.823Z,956.18
2018-05-03T02:01:08.759Z,956.14
2018-05-03T02:02:08.697Z,956.13
2018-05-03T02:03:08.634Z,956.08
2018-05-03T02:04:08.572Z,956.09
2018-05-03T02:05:08.510Z,956.08
2018-05-03T02:06:08.447Z,956.09
2018-05-03T02:07:08.385Z,956.06
2018-05-03T02:08:08.323Z,956.10
2018-05-03T02:09:08.259Z,956.07
2018-05-03T02:10:08.200Z,956.03
2018-05-03T02:11:08.135Z,956.09
2018-05-03T02:12:08.075Z,956.12
2018-05-03T02:13:08.009Z,956.16
2018-05-03T02:14:07.945Z,956.23
2018-05-03T02:15:07.885Z,956.21
2018-05-03T02:16:07.823Z,956.19
2018-05-03T02:17:07.758Z,956.24
2018-05-03T02:18:07.697Z,956.22
2018-05-03T02:19:07.635Z,956.21
2018-05-03T02:20:07.572Z,956.26
2018-05-03T02:21:07.506Z,956.25
2018-05-03T02:22:07.447Z,956.21
2018-05-03T02:23:07.383Z,956.19
2018-05-03T02:24:07.320Z,956.15
2018-05-03T02:25:07.257Z,956.10
2018-05-03T02:26:07.192Z,956.11
2018-05-03T02:27:07.134Z,956.15
2018-05-03T02:28:07.069Z,956.16
2018-05-03T02:29:07.004Z,956.18
2018-05-03T02:30:06.945Z,956.17
2018-05-03T02:31:06.881Z,956.19
2018-05-03T02:32:06.817Z,956.22
2018-05-03T02:33:06.756Z,956.22
2018-05-03T02:34:06.694Z,956.26
2018-05-03T02:35:06.635Z,956.26
2018-05-03T02:36:06.572Z,956.31
2018-05-03T02:37:06.509Z,956.33
2018-05-03T02:38:06.464Z,956.36
2018-05-03T02:39:06.383Z,956.39
2018-05-03T02:40:06.318Z,956.42
2018-05-03T02:41:06.257Z,956.41
2018-05-03T02:42:06.193Z,956.46
2018-05-03T02:43:06.132Z,956.47
2018-05-03T02:44:06.067Z,956.44
2018-05-03T02:45:06.005Z,956.48
2018-05-03T02:46:05.948Z,956.47
2018-05-03T02:47:05.881Z,956.50
2018-05-03T02:48:05.819Z,956.50
2018-05-03T02:49:05.755Z,956.58
2018-05-03T02:50:05.695Z,956.58
2018-05-03T02:51:05.630Z,956.59
2018-05-03T02:52:05.566Z,956.62
2018-05-03T02:53:05.504Z,956.64
2018-05-03T02:54:05.441Z,956.69
2018-05-03T02:55:05.383Z,956.66
2018-05-03T02:56:05.315Z,956.65
2018-05-03T02:57:05.253Z,956.67
2018-05-03T02:58:05.188Z,956.66
2018-05-03T02:59:05.131Z,956.67
2018-05-03T03:00:05.065Z,956.68
2018-05-03T03:01:05.003Z,956.70
2018-05-03T03:02:04.939Z,956.67
2018-05-03T03:03:04.879Z,956.72
2018-05-03T03:04:04.817Z,956.71
2018-05-03T03:05:04.752Z,956.72
2018-05-03T03:06:04.690Z,956.69
2018-05-03T03:07:04.628Z,956.71
2018-05-03T03:08:04.563Z,956.73
2018-05-03T03:09:04.502Z,956.70
2018-05-03T03:10:04.441Z,956.70
2018-05-03T03:11:04.377Z,956.74
2018-05-03T03:12:04.313Z,956.72
2018-05-03T03:13:04.253Z,956.73
2018-05-03T03:14:04.188Z,956.73
2018-05-03T03:15:04.127Z,956.74
2018-05-03T03:16:04.064Z,956.76
2018-05-03T03:17:04.001Z,956.76
2018-05-03T03:18:03.937Z,956.77
2018-05-03T03:19:03.877Z,956.78
2018-05-03T03:20:03.814Z,956.73
2018-05-03T03:21:03.749Z,956.73
2018-05-03T03:22:03.731Z,956.79
2018-05-03T03:23:03.627Z,956.80
2018-05-03T03:24:03.621Z,956.84
2018-05-03T03:25:03.502Z,956.82
2018-05-03T03:26:03.438Z,956.93
2018-05-03T03:27:03.375Z,956.91
2018-05-03T03:28:03.314Z,956.92
2018-05-03T03:29:03.248Z,956.94
2018-05-03T03:30:03.193Z,956.94
2018-05-03T03:31:03.124Z,956.96
2018-05-03T03:32:03.062Z,956.92
2018-05-03T03:33:03.000Z,956.91
2018-05-03T03:34:02.938Z,956.95
2018-05-03T03:35:02.879Z,956.95
2018-05-03T03:36:02.813Z,956.91
2018-05-03T03:37:02.754Z,956.95
2018-05-03T03:38:02.688Z,956.95
2018-05-03T03:39:02.624Z,957.03
2018-05-03T03:40:02.566Z,957.02
2018-05-03T03:41:02.498Z,957.06
2018-05-03T03:42:02.435Z,957.05
2018-05-03T03:43:02.375Z,957.08
2018-05-03T03:44:02.310Z,957.10
2018-05-03T03:45:02.251Z,957.05
2018-05-03T03:46:02.184Z,957.11
2018-05-03T03:47:02.123Z,957.08
2018-05-03T03:48:02.060Z,957.09
2018-05-03T03:49:01.998Z,957.15
2018-05-03T03:50:01.935Z,957.14
2018-05-03T03:51:01.874Z,957.17
2018-05-03T03:52:01.810Z,957.15
2018-05-03T03:53:01.746Z,957.19
2018-05-03T03:54:01.686Z,957.18
2018-05-03T03:55:01.632Z,957.21
2018-05-03T03:56:01.559Z,957.19
2018-05-03T03:57:01.498Z,957.24
2018-05-03T03:58:01.435Z,957.22
2018-05-03T03:59:01.390Z,957.20
2018-05-03T04:00:01.309Z,957.20
2018-05-03T04:01:01.246Z,957.22
2018-05-03T04:02:01.184Z,957.23
2018-05-03T04:03:01.121Z,957.20
2018-05-03T04:04:01.060Z,957.23
2018-05-03T04:05:00.996Z,957.24
2018-05-03T04:06:00.935Z,957.20
2018-05-03T04:07:00.872Z,957.26
2018-05-03T04:08:00.806Z,957.24
2018-05-03T04:09:00.745Z,957.23
2018-05-03T04:10:00.687Z,957.26
2018-05-03T04:11:00.621Z,957.30
2018-05-03T04:12:00.561Z,957.32
2018-05-03T04:13:00.496Z,957.36
2018-05-03T04:14:00.434Z,957.35
2018-05-03T04:15:00.372Z,957.36
2018-05-03T04:16:00.309Z,957.39
2018-05-03T04:17:00.247Z,957.38
2018-05-03T04:18:00.184Z,957.44
2018-05-03T04:19:00.123Z,957.47
2018-05-03T04:20:00.059Z,957.46
2018-05-03T04:20:59.998Z,957.47
2018-05-03T04:21:59.936Z,957.47
2018-05-03T04:22:59.872Z,957.50
2018-05-03T04:23:59.810Z,957.51
2018-05-03T04:24:59.748Z,957.52
2018-05-03T04:25:59.685Z,957.54
2018-05-03T04:26:59.623Z,957.58
2018-05-03T04:27:59.563Z,957.53
2018-05-03T04:28:59.497Z,957.57
2018-05-03T04:29:59.436Z,957.51
2018-05-03T04:30:59.372Z,957.49
2018-05-03T04:31:59.309Z,957.46
2018-05-03T04:32:59.247Z,957.45
2018-05-03T04:33:59.187Z,957.41
2018-05-03T04:34:59.124Z,957.44
2018-05-03T04:35:59.059Z,957.40
2018-05-03T04:36:58.998Z,957.42
2018-05-03T04:37:58.937Z,957.43
2018-05-03T04:38:58.881Z,957.46
2018-05-03T04:39:58.810Z,957.47
2018-05-03T04:40:58.748Z,957.50
2018-05-03T04:41:58.686Z,957.50
2018-05-03T04:42:58.629Z,957.52
2018-05-03T04:43:58.560Z,957.50
2018-05-03T04:44:58.497Z,957.50
2018-05-03T04:45:58.437Z,957.52
2018-05-03T04:46:58.397Z,957.50
2018-05-03T04:47:58.309Z,957.50
2018-05-03T04:48:58.247Z,957.49
2018-05-03T04:49:58.187Z,957.46
2018-05-03T04:50:58.129Z,957.48
2018-05-03T04:51:58.061Z,957.46
2018-05-03T04:52:57.997Z,957.48
2018-05-03T04:53:57.935Z,957.49
2018-05-03T04:54:57.874Z,957.49
2018-05-03T04:55:57.810Z,957.46
2018-05-03T04:56:57.748Z,957.51
2018-05-03T04:57:57.687Z,957.45
2018-05-03T04:58:57.623Z,957.48
2018-05-03T04:59:57.560Z,957.47
2018-05-03T05:00:57.498Z,957.49
2018-05-03T05:01:57.436Z,957.48
2018-05-03T05:02:57.372Z,957.48
2018-05-03T05:03:57.311Z,957.51
2018-05-03T05:04:57.248Z,957.50
2018-05-03T05:05:57.185Z,957.51
2018-05-03T05:06:57.123Z,957.48
2018-05-03T05:07:57.060Z,957.47
2018-05-03T05:08:56.999Z,957.49
2018-05-03T05:09:56.936Z,957.47
2018-05-03T05:10:56.873Z,957.48
2018-05-03T05:11:56.810Z,957.51
2018-05-03T05:12:56.747Z,957.49
2018-05-03T05:13:56.686Z,957.51
2018-05-03T05:14:56.623Z,957.53
2018-05-03T05:15:56.563Z,957.53
2018-05-03T05:16:56.497Z,957.52
2018-05-03T05:17:56.454Z,957.55
2018-05-03T05:18:56.374Z,957.53
2018-05-03T05:19:56.308Z,957.58
2018-05-03T05:20:56.247Z,957.56
2018-05-03T05:21:56.185Z,957.60
2018-05-03T05:22:56.123Z,957.56
2018-05-03T05:23:56.059Z,957.63
2018-05-03T05:24:55.997Z,957.62
2018-05-03T05:25:55.940Z,957.63
2018-05-03T05:26:55.880Z,957.71
2018-05-03T05:27:55.809Z,957.69
2018-05-03T05:28:55.747Z,957.70
2018-05-03T05:29:55.688Z,957.66
2018-05-03T05:30:55.623Z,957.72
2018-05-03T05:31:55.559Z,957.76
2018-05-03T05:32:55.498Z,957.78
2018-05-03T05:33:55.435Z,957.81
2018-05-03T05:34:55.377Z,957.81
2018-05-03T05:35:55.312Z,957.84
2018-05-03T05:36:55.249Z,957.89
2018-05-03T05:37:55.185Z,957.91
2018-05-03T05:38:55.213Z,957.88
2018-05-03T05:39:55.059Z,957.91
2018-05-03T05:40:54.999Z,957.92
2018-05-03T05:41:54.936Z,957.90
2018-05-03T05:42:54.873Z,957.88
2018-05-03T05:43:54.811Z,957.87
2018-05-03T05:44:54.749Z,957.79
2018-05-03T05:45:54.689Z,957.87
2018-05-03T05:46:54.623Z,957.88
2018-05-03T05:47:54.561Z,957.91
2018-05-03T05:48:54.499Z,957.91
2018-05-03T05:49:54.436Z,957.96
2018-05-03T05:50:54.383Z,957.97
2018-05-03T05:51:54.314Z,957.95
2018-05-03T05:52:54.255Z,957.97
2018-05-03T05:53:54.190Z,957.99
2018-05-03T05:54:54.126Z,957.98
2018-05-03T05:55:54.067Z,957.98
2018-05-03T05:56:53.999Z,958.03
2018-05-03T05:57:53.937Z,958.03
2018-05-03T05:58:53.880Z,958.04
2018-05-03T05:59:53.816Z,958.05
2018-05-03T06:00:53.753Z,958.05
2018-05-03T06:01:53.690Z,958.01
2018-05-03T06:02:53.634Z,958.01
2018-05-03T06:03:53.570Z,957.99
2018-05-03T06:04:53.504Z,958.01
2018-05-03T06:05:53.443Z,958.02
2018-05-03T06:06:53.380Z,958.08
2018-05-03T06:07:53.318Z,958.07
2018-05-03T06:08:53.255Z,958.11
2018-05-03T06:09:53.194Z,958.16
2018-05-03T06:10:53.132Z,958.15
2018-05-03T06:11:53.071Z,958.13
2018-05-03T06:12:53.008Z,958.09
2018-05-03T06:13:52.943Z,958.12
2018-05-03T06:14:52.885Z,958.10
2018-05-03T06:15:52.823Z,958.13
2018-05-03T06:16:52.761Z,958.13
2018-05-03T06:17:52.710Z,958.11
2018-05-03T06:18:52.636Z,958.15
2018-05-03T06:19:52.575Z,958.11
2018-05-03T06:20:52.512Z,958.13
2018-05-03T06:21:52.452Z,958.12
2018-05-03T06:22:52.387Z,958.14
2018-05-03T06:23:52.327Z,958.15
2018-05-03T06:24:52.265Z,958.20
2018-05-03T06:25:52.212Z,958.21
2018-05-03T06:26:52.146Z,958.18
2018-05-03T06:27:52.083Z,958.19
2018-05-03T06:28:52.018Z,958.21
2018-05-03T06:29:51.956Z,958.26
2018-05-03T06:30:51.897Z,958.25
2018-05-03T06:31:51.830Z,958.25
2018-05-03T06:32:51.769Z,958.27
2018-05-03T06:33:51.708Z,958.29
2018-05-03T06:34:51.646Z,958.31
2018-05-03T06:35:51.582Z,958.29
2018-05-03T06:36:51.523Z,958.24
2018-05-03T06:37:51.461Z,958.25
2018-05-03T06:38:51.435Z,958.30
2018-05-03T06:39:51.335Z,958.33
2018-05-03T06:40:51.273Z,958.33
2018-05-03T06:41:51.212Z,958.36
2018-05-03T06:42:51.149Z,958.36
2018-05-03T06:43:51.097Z,958.39
2018-05-03T06:44:51.025Z,958.36
2018-05-03T06:45:50.962Z,958.40
2018-05-03T06:46:50.907Z,958.37
2018-05-03T06:47:50.841Z,958.42
2018-05-03T06:48:50.777Z,958.44
2018-05-03T06:49:50.718Z,958.43
2018-05-03T06:50:50.656Z,958.47
2018-05-03T06:51:50.591Z,958.45
2018-05-03T06:52:50.531Z,958.46
2018-05-03T06:53:50.470Z,958.40
2018-05-03T06:54:50.409Z,958.44
2018-05-03T06:55:50.348Z,958.37
2018-05-03T06:56:50.283Z,958.38
2018-05-03T06:57:50.222Z,958.39
2018-05-03T06:58:50.159Z,958.40
2018-05-03T06:59:50.101Z,958.41
2018-05-03T07:00:50.038Z,958.41
2018-05-03T07:01:49.976Z,958.43
2018-05-03T07:02:49.910Z,958.42
2018-05-03T07:03:49.850Z,958.40
2018-05-03T07:04:49.788Z,958.42
2018-05-03T07:05:49.729Z,958.39
2018-05-03T07:06:49.666Z,958.38
2018-05-03T07:07:49.603Z,958.32
2018-05-03T07:08:49.540Z,958.36
2018-05-03T07:09:49.551Z,958.40
2018-05-03T07:10:49.419Z,958.40
2018-05-03T07:11:49.358Z,958.45
2018-05-03T07:12:49.294Z,958.48
2018-05-03T07:13:49.233Z,958.49
2018-05-03T07:14:49.175Z,958.52
2018-05-03T07:15:49.109Z,958.54
2018-05-03T07:16:49.053Z,958.54
2018-05-03T07:17:48.988Z,958.52
2018-05-03T07:18:48.926Z,958.52
2018-05-03T07:19:48.861Z,958.47
2018-05-03T07:20:48.805Z,958.51
2018-05-03T07:21:48.739Z,958.49
2018-05-03T07:22:48.677Z,958.46
2018-05-03T07:23:48.655Z,958.47
2018-05-03T07:24:48.554Z,958.45
2018-05-03T07:25:48.493Z,958.49
2018-05-03T07:26:48.433Z,958.52
2018-05-03T07:27:48.371Z,958.55
2018-05-03T07:28:48.311Z,958.57
2018-05-03T07:29:48.248Z,958.55
2018-05-03T07:30:48.189Z,958.58
2018-05-03T07:31:48.125Z,958.62
2018-05-03T07:32:48.065Z,958.60
2018-05-03T07:33:48.002Z,958.64
2018-05-03T07:34:47.984Z,958.62
2018-05-03T07:35:47.880Z,958.64
2018-05-03T07:36:47.819Z,958.67
2018-05-03T07:37:47.757Z,958.70
2018-05-03T07:38:47.700Z,958.72
2018-05-03T07:39:47.637Z,958.74
2018-05-03T07:40:47.658Z,958.76
2018-05-03T07:41:47.512Z,958.76
2018-05-03T07:42:47.452Z,958.74
2018-05-03T07:43:47.392Z,958.75
2018-05-03T07:44:47.330Z,958.75
2018-05-03T07:45:47.270Z,958.74
2018-05-03T07:46:47.209Z,958.77
2018-05-03T07:47:47.147Z,958.74
2018-05-03T07:48:47.088Z,958.77
2018-05-03T07:49:47.026Z,958.73
2018-05-03T07:50:46.968Z,958.79
2018-05-03T07:51:46.908Z,958.77
2018-05-03T07:52:46.844Z,958.72
2018-05-03T07:53:46.784Z,958.73
2018-05-03T07:54:46.725Z,958.69
2018-05-03T07:55:46.663Z,958.69
2018-05-03T07:56:46.647Z,958.70
2018-05-03T07:57:46.541Z,958.68
2018-05-03T07:58:46.483Z,958.72
2018-05-03T07:59:46.420Z,958.72
2018-05-03T08:00:46.360Z,958.73
2018-05-03T08:01:46.302Z,958.75
2018-05-03T08:02:46.242Z,958.78
2018-05-03T08:03:46.179Z,958.84
2018-05-03T08:04:46.121Z,958.84
2018-05-03T08:05:46.059Z,958.85
2018-05-03T08:06:48.628Z,958.83
2018-05-03T08:07:45.949Z,958.87
2018-05-03T08:08:45.880Z,958.87
2018-05-03T08:09:45.820Z,958.86
2018-05-03T08:10:45.758Z,958.85
2018-05-03T08:11:45.703Z,958.84
2018-05-03T08:12:45.637Z,958.85
2018-05-03T08:13:45.577Z,958.85
2018-05-03T08:14:45.532Z,958.83
2018-05-03T08:15:45.457Z,958.82
2018-05-03T08:16:45.399Z,958.80
2018-05-03T08:17:45.339Z,958.85
2018-05-03T08:18:45.280Z,958.82
2018-05-03T08:19:45.217Z,958.80
2018-05-03T08:20:45.159Z,958.82
2018-05-03T08:21:45.100Z,958.87
2018-05-03T08:22:45.125Z,958.83
2018-05-03T08:23:44.978Z,958.82
2018-05-03T08:24:44.917Z,958.83
2018-05-03T08:25:44.860Z,958.80
2018-05-03T08:26:44.811Z,958.79
2018-05-03T08:27:44.741Z,958.87
2018-05-03T08:28:44.682Z,958.84
2018-05-03T08:29:44.623Z,958.87
2018-05-03T08:30:44.567Z,958.91
2018-05-03T08:31:44.512Z,958.88
2018-05-03T08:32:44.441Z,958.86
2018-05-03T08:33:44.385Z,958.83
2018-05-03T08:34:44.324Z,958.88
2018-05-03T08:35:44.267Z,958.93
2018-05-03T08:36:44.203Z,958.91
2018-05-03T08:37:44.156Z,958.91
2018-05-03T08:38:44.086Z,958.89
2018-05-03T08:39:44.028Z,958.90
2018-05-03T08:40:43.969Z,958.90
2018-05-03T08:41:43.908Z,958.89
2018-05-03T08:42:43.850Z,958.88
2018-05-03T08:43:43.794Z,958.85
2018-05-03T08:44:43.731Z,958.84
2018-05-03T08:45:43.672Z,958.86
2018-05-03T08:46:43.616Z,958.79
2018-05-03T08:47:43.557Z,958.79
2018-05-03T08:48:43.496Z,958.80
2018-05-03T08:49:43.437Z,958.84
2018-05-03T08:50:43.377Z,958.86
2018-05-03T08:51:43.317Z,958.86
2018-05-03T08:52:43.258Z,958.90
2018-05-03T08:53:43.199Z,958.93
2018-05-03T08:54:43.139Z,958.93
2018-05-03T08:55:43.095Z,958.90
2018-05-03T08:56:43.021Z,958.96
2018-05-03T08:57:42.967Z,958.94
2018-05-03T08:58:42.902Z,958.93
2018-05-03T08:59:42.841Z,958.93
2018-05-03T09:00:42.783Z,958.94
2018-05-03T09:01:42.748Z,958.91
2018-05-03T09:02:42.666Z,958.94
2018-05-03T09:03:42.608Z,958.98
2018-05-03T09:04:42.552Z,958.97
2018-05-03T09:05:42.521Z,959.02
2018-05-03T09:06:42.433Z,958.98
2018-05-03T09:07:42.464Z,959.04
2018-05-03T09:08:42.314Z,959.07
2018-05-03T09:09:42.255Z,959.02
2018-05-03T09:10:42.197Z,959.02
2018-05-03T09:11:42.137Z,959.00
2018-05-03T09:12:42.076Z,959.05
2018-05-03T09:13:42.019Z,959.08
2018-05-03T09:14:41.960Z,959.05
2018-05-03T09:15:41.901Z,959.07
2018-05-03T09:16:41.844Z,959.11
2018-05-03T09:17:41.788Z,959.10
2018-05-03T09:18:41.726Z,959.17
2018-05-03T09:19:41.668Z,959.16
2018-05-03T09:20:41.612Z,959.16
2018-05-03T09:21:41.551Z,959.16
2018-05-03T09:22:41.493Z,959.16
2018-05-03T09:23:41.441Z,959.16
2018-05-03T09:24:41.375Z,959.13
2018-05-03T09:25:41.321Z,959.16
2018-05-03T09:26:41.262Z,959.13
2018-05-03T09:27:41.201Z,959.18
2018-05-03T09:28:41.141Z,959.22
2018-05-03T09:29:41.098Z,959.18
2018-05-03T09:30:41.025Z,959.23
2018-05-03T09:31:40.971Z,959.21
2018-05-03T09:32:40.908Z,959.30
2018-05-03T09:33:40.851Z,959.33
2018-05-03T09:34:40.795Z,959.33
2018-05-03T09:35:40.737Z,959.33
2018-05-03T09:36:40.678Z,959.36
2018-05-03T09:37:40.620Z,959.33
2018-05-03T09:38:40.562Z,959.34
2018-05-03T09:39:40.504Z,959.32
2018-05-03T09:40:40.448Z,959.33
2018-05-03T09:41:40.388Z,959.34
2018-05-03T09:42:40.331Z,959.35
2018-05-03T09:43:40.273Z,959.30
2018-05-03T09:44:40.284Z,959.34
2018-05-03T09:45:40.157Z,959.36
2018-05-03T09:46:40.108Z,959.34
2018-05-03T09:47:40.041Z,959.33
2018-05-03T09:48:39.982Z,959.34
2018-05-03T09:49:39.924Z,959.36
2018-05-03T09:50:39.868Z,959.31
2018-05-03T09:51:39.808Z,959.33
2018-05-03T09:52:39.752Z,959.35
2018-05-03T09:53:39.695Z,959.39
2018-05-03T09:54:39.633Z,959.33
2018-05-03T09:55:39.577Z,959.37
2018-05-03T09:56:39.519Z,959.37
2018-05-03T09:57:39.462Z,959.34
2018-05-03T09:58:39.403Z,959.32
2018-05-03T09:59:39.346Z,959.29
2018-05-03T10:00:39.288Z,959.26
2018-05-03T10:01:39.236Z,959.29
2018-05-03T10:02:39.172Z,959.32
2018-05-03T10:03:39.115Z,959.32
2018-05-03T10:04:39.057Z,959.33
2018-05-03T10:05:39.001Z,959.27
2018-05-03T10:06:38.943Z,959.26
2018-05-03T10:07:38.885Z,959.23
2018-05-03T10:08:38.826Z,959.20
2018-05-03T10:09:38.768Z,959.21
2018-05-03T10:10:38.711Z,959.18
2018-05-03T10:11:38.655Z,959.19
2018-05-03T10:12:38.595Z,959.16
2018-05-03T10:13:38.538Z,959.19
2018-05-03T10:14:38.540Z,959.17
2018-05-03T10:15:38.421Z,959.16
2018-05-03T10:16:38.363Z,959.20
2018-05-03T10:17:38.307Z,959.17
2018-05-03T10:18:38.248Z,959.16
2018-05-03T10:19:38.189Z,959.16
2018-05-03T10:20:38.133Z,959.16
2018-05-03T10:21:38.077Z,959.14
2018-05-03T10:22:38.088Z,959.13
2018-05-03T10:23:37.960Z,959.12
2018-05-03T10:24:37.900Z,959.11
2018-05-03T10:25:37.956Z,959.10
2018-05-03T10:26:37.788Z,959.07
2018-05-03T10:27:38.071Z,959.04
2018-05-03T10:28:37.671Z,959.05
2018-05-03T10:29:37.614Z,959.12
2018-05-03T10:30:37.555Z,959.02
2018-05-03T10:31:37.498Z,959.05
2018-05-03T10:32:37.443Z,959.01
2018-05-03T10:33:37.383Z,959.06
2018-05-03T10:34:37.326Z,959.09
2018-05-03T10:35:37.319Z,959.04
2018-05-03T10:36:37.210Z,959.00
2018-05-03T10:37:37.153Z,958.98
2018-05-03T10:38:37.098Z,959.00
2018-05-03T10:39:37.040Z,959.05
2018-05-03T10:40:36.984Z,959.03
2018-05-03T10:41:36.925Z,959.07
2018-05-03T10:42:36.869Z,959.03
2018-05-03T10:43:36.811Z,959.07
2018-05-03T10:44:36.759Z,958.98
2018-05-03T10:45:36.697Z,959.03
2018-05-03T10:46:36.641Z,958.98
2018-05-03T10:47:36.583Z,959.02
2018-05-03T10:48:36.610Z,959.02
2018-05-03T10:49:36.468Z,958.98
2018-05-03T10:50:36.412Z,958.98
2018-05-03T10:51:36.353Z,959.03
2018-05-03T10:52:36.297Z,959.02
2018-05-03T10:53:36.249Z,959.04
2018-05-03T10:54:36.192Z,959.02
2018-05-03T10:55:36.156Z,959.07
2018-05-03T10:56:36.106Z,959.03
2018-05-03T10:57:36.012Z,959.06
2018-05-03T10:58:35.957Z,959.05
2018-05-03T10:59:35.902Z,959.05
2018-05-03T11:00:35.840Z,959.06
2018-05-03T11:01:35.781Z,959.07
2018-05-03T11:02:35.725Z,959.10
2018-05-03T11:03:35.670Z,959.04
2018-05-03T11:04:35.613Z,959.12
2018-05-03T11:05:35.627Z,959.09
2018-05-03T11:06:35.495Z,959.04
2018-05-03T11:07:35.438Z,959.05
2018-05-03T11:08:35.380Z,959.01
2018-05-03T11:09:35.335Z,959.01
2018-05-03T11:10:35.265Z,959.00
2018-05-03T11:11:35.208Z,959.02
2018-05-03T11:12:35.151Z,959.01
2018-05-03T11:13:35.096Z,958.97
2018-05-03T11:14:35.040Z,958.94
2018-05-03T11:15:34.979Z,958.96
2018-05-03T11:16:34.925Z,958.90
2018-05-03T11:17:34.862Z,958.87
2018-05-03T11:18:34.809Z,958.89
2018-05-03T11:19:34.749Z,958.87
2018-05-03T11:20:34.693Z,958.87
2018-05-03T11:21:34.635Z,958.86
2018-05-03T11:22:34.576Z,958.85
2018-05-03T11:23:34.521Z,958.78
2018-05-03T11:24:34.467Z,958.85
2018-05-03T11:25:34.406Z,958.80
2018-05-03T11:26:34.352Z,958.80
2018-05-03T11:27:34.293Z,958.77
2018-05-03T11:28:34.232Z,958.83
2018-05-03T11:29:34.171Z,958.81
2018-05-03T11:30:34.116Z,958.82
2018-05-03T11:31:34.090Z,958.77
2018-05-03T11:32:34.003Z,958.80
2018-05-03T11:33:33.944Z,958.81
2018-05-03T11:34:33.891Z,958.81
2018-05-03T11:35:33.829Z,958.83
2018-05-03T11:36:33.774Z,958.79
2018-05-03T11:37:33.714Z,958.86
2018-05-03T11:38:33.656Z,958.78
2018-05-03T11:39:33.599Z,958.84
2018-05-03T11:40:33.541Z,958.87
2018-05-03T11:41:33.482Z,958.85
2018-05-03T11:42:33.457Z,958.83
2018-05-03T11:43:33.369Z,958.79
2018-05-03T11:44:33.311Z,958.77
2018-05-03T11:45:33.252Z,958.80
2018-05-03T11:46:33.196Z,958.77
2018-05-03T11:47:33.136Z,958.81
2018-05-03T11:48:33.081Z,958.82
2018-05-03T11:49:33.023Z,958.79
2018-05-03T11:50:32.965Z,958.85
2018-05-03T11:51:32.906Z,958.81
2018-05-03T11:52:32.848Z,958.90
2018-05-03T11:53:32.791Z,958.83
2018-05-03T11:54:32.735Z,958.83
2018-05-03T11:55:32.673Z,958.81
2018-05-03T11:56:32.619Z,958.86
2018-05-03T11:57:32.558Z,958.73
2018-05-03T11:58:32.502Z,958.75
2018-05-03T11:59:32.459Z,958.78
2018-05-03T12:00:32.386Z,958.77
2018-05-03T12:01:32.329Z,958.72
2018-05-03T12:02:32.327Z,958.79
2018-05-03T12:03:32.212Z,958.74
2018-05-03T12:04:32.153Z,958.74
2018-05-03T12:05:32.094Z,958.78
2018-05-03T12:06:32.039Z,958.74
2018-05-03T12:07:31.978Z,958.81
2018-05-03T12:08:31.920Z,958.77
2018-05-03T12:09:31.863Z,958.75
2018-05-03T12:10:31.808Z,958.76
2018-05-03T12:11:31.747Z,958.79
2018-05-03T12:12:31.688Z,958.78
2018-05-03T12:13:31.633Z,958.77
2018-05-03T12:14:31.575Z,958.73
2018-05-03T12:15:31.513Z,958.75
2018-05-03T12:16:31.455Z,958.76
2018-05-03T12:17:31.401Z,958.76
2018-05-03T12:18:31.341Z,958.72
2018-05-03T12:19:31.288Z,958.74
2018-05-03T12:20:31.225Z,958.79
2018-05-03T12:21:31.165Z,958.76
2018-05-03T12:22:31.109Z,958.80
2018-05-03T12:23:31.049Z,958.79
2018-05-03T12:24:31.104Z,958.78
2018-05-03T12:25:30.936Z,958.80
2018-05-03T12:26:30.880Z,958.82
2018-05-03T12:27:30.818Z,958.74